Time;durP1;ratioP1;P1;durP2;ratioP2;P2;SDS_P1;SDS_P2;PMS_P1;PMS_P2;Temp;Humidity;BMP_temperature;BMP_pressure;BME280_temperature;BME280_humidity;BME280_pressure;Samples;Min_cycle;Max_cycle;Signal;HPM_P1;HPM_P2
2023/10/12 00:01:24;;;;;;;0.70;0.40;;;;;;;;;;5107758;28;20493;-61
2023/10/12 00:03:55;;;;;;;1.20;0.50;;;;;;;;;;5108281;28;20024;-62
2023/10/12 00:06:26;;;;;;;0.45;0.32;;;;;;;;;;5112664;28;20023;-62
2023/10/12 00:08:53;;;;;;;0.30;0.20;;;;;;;;;;5112460;28;20069;-62
2023/10/12 00:11:20;;;;;;;0.22;0.10;;;;;;;;;;5112572;28;20034;-62
2023/10/12 00:13:51;;;;;;;0.55;0.15;;;;;;;;;;5112383;28;20024;-62
2023/10/12 00:16:19;;;;;;;0.25;0.20;;;;;;;;;;5112545;28;20374;-61
2023/10/12 00:18:49;;;;;;;0.00;0.00;;;;;;;;;;5107560;28;20044;-61
2023/10/12 00:21:25;;;;;;;0.98;0.30;;;;;;;;;;5107439;28;20111;-62
2023/10/12 00:23:52;;;;;;;0.75;0.30;;;;;;;;;;5107546;28;20389;-62
2023/10/12 00:26:19;;;;;;;0.20;0.10;;;;;;;;;;5107632;28;20470;-62
2023/10/12 00:28:50;;;;;;;0.80;0.30;;;;;;;;;;5107605;28;20023;-62
2023/10/12 00:31:21;;;;;;;0.15;0.15;;;;;;;;;;5111980;28;20035;-62
2023/10/12 00:33:51;;;;;;;0.55;0.30;;;;;;;;;;5112162;28;20063;-62
2023/10/12 00:36:24;;;;;;;0.38;0.30;;;;;;;;;;5112217;28;20024;-62
2023/10/12 00:38:59;;;;;;;0.90;0.22;;;;;;;;;;5111899;28;20024;-62
2023/10/12 00:41:27;;;;;;;1.13;0.60;;;;;;;;;;5111618;28;20112;-62
2023/10/12 00:44:07;;;;;;;1.50;0.50;;;;;;;;;;5107456;28;20034;-62
2023/10/12 00:49:21;;;;;;;1.38;0.70;;;;;;;;;;5065034;28;20575;-60
2023/10/12 00:52:23;;;;;;;1.20;0.32;;;;;;;;;;5106793;28;20028;-59
2023/10/12 00:54:48;;;;;;;0.30;0.13;;;;;;;;;;5108922;28;20473;-60
2023/10/12 00:57:16;;;;;;;2.55;0.57;;;;;;;;;;5111908;28;20080;-59
2023/10/12 00:59:43;;;;;;;4.47;0.32;;;;;;;;;;5111874;28;20038;-60
2023/10/12 01:02:12;;;;;;;1.50;0.50;;;;;;;;;;5111378;28;20028;-60
2023/10/12 01:04:42;;;;;;;0.93;0.47;;;;;;;;;;5111922;28;20038;-59
2023/10/12 01:07:11;;;;;;;0.13;0.10;;;;;;;;;;5113447;28;20027;-59
2023/10/12 01:09:45;;;;;;;0.45;0.32;;;;;;;;;;5111049;28;20068;-60
2023/10/12 01:12:15;;;;;;;0.40;0.20;;;;;;;;;;5111144;28;20558;-59
2023/10/12 01:14:48;;;;;;;2.40;0.65;;;;;;;;;;5110729;28;20035;-59
2023/10/12 01:17:24;;;;;;;0.93;0.55;;;;;;;;;;5110732;28;20474;-59
2023/10/12 01:19:52;;;;;;;1.38;0.38;;;;;;;;;;5113398;28;20039;-60
2023/10/12 01:22:31;;;;;;;2.75;0.68;;;;;;;;;;5115677;28;20027;-59
2023/10/12 01:25:00;;;;;;;3.45;0.68;;;;;;;;;;5115602;28;20085;-60
2023/10/12 01:27:27;;;;;;;0.80;0.52;;;;;;;;;;5115163;28;20031;-59
2023/10/12 01:30:13;;;;;;;0.93;0.57;;;;;;;;;;5115310;28;20050;-60
2023/10/12 01:32:40;;;;;;;2.87;0.80;;;;;;;;;;5112884;28;20359;-59
2023/10/12 01:35:10;;;;;;;1.97;0.80;;;;;;;;;;5110247;28;20051;-60
2023/10/12 01:38:10;;;;;;;2.57;0.77;;;;;;;;;;5110471;28;20027;-60
2023/10/12 01:43:17;;;;;;;0.45;0.30;;;;;;;;;;5110454;28;20061;-59
2023/10/12 01:45:44;;;;;;;1.50;0.60;;;;;;;;;;5114537;28;20028;-59
2023/10/12 01:48:12;;;;;;;1.70;0.40;;;;;;;;;;5114410;28;20509;-59
2023/10/12 01:50:40;;;;;;;0.03;0.03;;;;;;;;;;5114919;28;20041;-59
2023/10/12 01:55:47;;;;;;;1.23;0.23;;;;;;;;;;5114939;28;20035;-60
2023/10/12 01:58:16;;;;;;;0.27;0.10;;;;;;;;;;5111140;28;20012;-60
2023/10/12 02:00:43;;;;;;;0.13;0.10;;;;;;;;;;5110003;28;20042;-60
2023/10/12 02:03:17;;;;;;;0.30;0.23;;;;;;;;;;5109562;28;20028;-60
2023/10/12 02:05:50;;;;;;;1.27;0.55;;;;;;;;;;5109873;28;20110;-59
2023/10/12 02:08:19;;;;;;;1.03;0.40;;;;;;;;;;5110014;28;20016;-59
2023/10/12 02:10:58;;;;;;;2.20;0.63;;;;;;;;;;5114461;28;20397;-59
2023/10/12 02:13:25;;;;;;;0.20;0.10;;;;;;;;;;5114723;28;20035;-59
2023/10/12 02:15:52;;;;;;;2.80;0.47;;;;;;;;;;5114217;28;20485;-59
2023/10/12 02:18:19;;;;;;;0.47;0.30;;;;;;;;;;5114269;28;20095;-60
2023/10/12 02:21:29;;;;;;;1.10;0.27;;;;;;;;;;5114493;28;20363;-59
2023/10/12 02:23:53;;;;;;;0.57;0.30;;;;;;;;;;5098575;28;20531;-59
2023/10/12 02:29:18;;;;;;;0.63;0.37;;;;;;;;;;5109659;28;20030;-60
2023/10/12 02:34:19;;;;;;;0.00;0.00;;;;;;;;;;5111145;28;20504;-59
2023/10/12 02:39:28;;;;;;;0.63;0.37;;;;;;;;;;5113949;28;20046;-59
2023/10/12 02:47:23;;;;;;;0.33;0.20;;;;;;;;;;5111971;28;20038;-60
2023/10/12 02:49:50;;;;;;;0.50;0.33;;;;;;;;;;5109273;28;20027;-59
2023/10/12 02:52:20;;;;;;;0.37;0.17;;;;;;;;;;5108965;28;20072;-59
2023/10/12 02:54:50;;;;;;;3.37;0.47;;;;;;;;;;5109117;28;20419;-59
2023/10/12 02:57:25;;;;;;;0.30;0.10;;;;;;;;;;5108908;28;20028;-60
2023/10/12 03:00:03;;;;;;;0.03;0.03;;;;;;;;;;5111212;28;20039;-59
2023/10/12 03:02:33;;;;;;;0.53;0.30;;;;;;;;;;5113439;28;20543;-60
2023/10/12 03:05:06;;;;;;;0.67;0.50;;;;;;;;;;5113834;28;20023;-60
2023/10/12 03:07:36;;;;;;;0.00;0.00;;;;;;;;;;5113181;28;20036;-59
2023/10/12 03:10:07;;;;;;;7.80;0.47;;;;;;;;;;5113483;28;20377;-59
2023/10/12 03:12:35;;;;;;;0.57;0.30;;;;;;;;;;5110956;28;20559;-59
2023/10/12 03:15:13;;;;;;;2.23;0.80;;;;;;;;;;5108335;28;20026;-60
2023/10/12 03:17:48;;;;;;;0.60;0.20;;;;;;;;;;5108373;28;20092;-60
2023/10/12 03:20:28;;;;;;;0.17;0.10;;;;;;;;;;5108300;28;20043;-59
2023/10/12 03:22:59;;;;;;;0.87;0.53;;;;;;;;;;5108589;28;20472;-59
2023/10/12 03:28:36;;;;;;;2.43;0.37;;;;;;;;;;5067221;28;20034;-59
2023/10/12 03:31:15;;;;;;;11.87;0.47;;;;;;;;;;5112826;28;20081;-59
2023/10/12 03:33:54;;;;;;;0.30;0.20;;;;;;;;;;5113266;28;20486;-60
2023/10/12 03:36:25;;;;;;;0.83;0.43;;;;;;;;;;5112315;28;20109;-60
2023/10/12 03:41:54;;;;;;;0.30;0.30;;;;;;;;;;5108538;28;20114;-59
2023/10/12 03:45:23;;;;;;;0.13;0.13;;;;;;;;;;5107776;28;20100;-59
2023/10/12 03:52:20;;;;;;;1.20;0.33;;;;;;;;;;5112746;28;20074;-60
2023/10/12 04:02:45;;;;;;;0.17;0.17;;;;;;;;;;5110090;28;20090;-59
2023/10/12 04:05:16;;;;;;;0.33;0.30;;;;;;;;;;5107781;28;20423;-59
2023/10/12 04:16:09;;;;;;;3.40;0.63;;;;;;;;;;5112614;28;20027;-59
2023/10/12 04:19:10;;;;;;;0.40;0.27;;;;;;;;;;5112294;28;20026;-59
2023/10/12 04:21:39;;;;;;;0.30;0.20;;;;;;;;;;5108391;28;20472;-59
2023/10/12 04:27:11;;;;;;;1.13;0.40;;;;;;;;;;5111336;28;20381;-59
2023/10/12 04:29:39;;;;;;;3.03;0.50;;;;;;;;;;5107415;28;20062;-60
2023/10/12 04:32:37;;;;;;;0.43;0.30;;;;;;;;;;5107707;28;20454;-59
2023/10/12 04:35:14;;;;;;;0.97;0.43;;;;;;;;;;5107298;28;20050;-59
2023/10/12 04:37:42;;;;;;;9.50;0.50;;;;;;;;;;5107481;28;20096;-59
2023/10/12 04:40:32;;;;;;;0.70;0.33;;;;;;;;;;5110726;28;20121;-59
2023/10/12 04:43:00;;;;;;;1.33;0.50;;;;;;;;;;5115771;28;20040;-59
2023/10/12 04:45:30;;;;;;;0.20;0.13;;;;;;;;;;5116298;28;20377;-59
2023/10/12 04:48:08;;;;;;;0.63;0.37;;;;;;;;;;5116164;28;20024;-62
2023/10/12 04:50:52;;;;;;;0.23;0.23;;;;;;;;;;5116192;28;20043;-61
2023/10/12 04:53:19;;;;;;;1.92;0.70;;;;;;;;;;5111812;28;20035;-61
2023/10/12 04:55:47;;;;;;;0.33;0.23;;;;;;;;;;5111475;28;20378;-61
2023/10/12 04:58:35;;;;;;;0.10;0.10;;;;;;;;;;5110963;28;20031;-61
2023/10/12 05:01:15;;;;;;;1.37;0.30;;;;;;;;;;5111160;28;20036;-59
2023/10/12 05:04:05;;;;;;;0.20;0.20;;;;;;;;;;5112037;28;20397;-59
2023/10/12 05:06:35;;;;;;;0.08;0.05;;;;;;;;;;5115972;28;20359;-59
2023/10/12 05:09:11;;;;;;;3.00;0.43;;;;;;;;;;5115898;28;20077;-59
2023/10/12 05:11:38;;;;;;;0.30;0.20;;;;;;;;;;5115494;28;20046;-59
2023/10/12 05:14:14;;;;;;;0.10;0.10;;;;;;;;;;5115411;28;20031;-59
2023/10/12 05:16:45;;;;;;;0.13;0.13;;;;;;;;;;5114696;28;20032;-59
2023/10/12 05:19:12;;;;;;;0.10;0.03;;;;;;;;;;5110956;28;20051;-59
2023/10/12 05:21:39;;;;;;;0.13;0.10;;;;;;;;;;5111040;28;20034;-59
2023/10/12 05:24:08;;;;;;;0.70;0.40;;;;;;;;;;5110706;28;20028;-59
2023/10/12 05:26:35;;;;;;;0.77;0.40;;;;;;;;;;5110451;28;20098;-59
2023/10/12 05:29:28;;;;;;;0.20;0.10;;;;;;;;;;5111923;28;20019;-59
2023/10/12 05:32:37;;;;;;;0.07;0.07;;;;;;;;;;5115152;28;20023;-58
2023/10/12 05:34:45;;;;;;;0.53;0.27;;;;;;;;;;5104538;28;20027;-59
2023/10/12 05:39:50;;;;;;;0.00;0.00;;;;;;;;;;5115277;28;20546;-59
2023/10/12 05:42:19;;;;;;;0.13;0.13;;;;;;;;;;5111277;28;20498;-59
2023/10/12 05:45:17;;;;;;;2.67;0.57;;;;;;;;;;5109897;28;20108;-59
2023/10/12 05:47:43;;;;;;;0.30;0.13;;;;;;;;;;5109643;28;20477;-59
2023/10/12 05:50:15;;;;;;;0.30;0.20;;;;;;;;;;5096296;28;20032;-59
2023/10/12 05:52:42;;;;;;;0.30;0.23;;;;;;;;;;5092772;28;20111;-59
2023/10/12 05:55:23;;;;;;;0.30;0.20;;;;;;;;;;5100458;28;20019;-59
2023/10/12 05:57:50;;;;;;;0.20;0.10;;;;;;;;;;5115082;28;20020;-59
2023/10/12 06:00:35;;;;;;;0.97;0.50;;;;;;;;;;5114875;28;20039;-59
2023/10/12 06:03:04;;;;;;;0.10;0.10;;;;;;;;;;5114827;28;20031;-59
2023/10/12 06:05:34;;;;;;;0.83;0.23;;;;;;;;;;5107200;28;20069;-59
2023/10/12 06:08:02;;;;;;;0.37;0.27;;;;;;;;;;5097428;28;20024;-59
2023/10/12 06:10:29;;;;;;;0.67;0.30;;;;;;;;;;5109697;28;20103;-59
2023/10/12 06:12:56;;;;;;;0.67;0.30;;;;;;;;;;5097740;28;20042;-59
2023/10/12 06:15:28;;;;;;;0.50;0.40;;;;;;;;;;5093331;28;20074;-59
2023/10/12 06:17:55;;;;;;;0.10;0.03;;;;;;;;;;5077305;28;20020;-60
2023/10/12 06:20:40;;;;;;;0.40;0.20;;;;;;;;;;5105533;28;20108;-59
2023/10/12 06:23:14;;;;;;;1.05;0.30;;;;;;;;;;5095634;28;20015;-59
2023/10/12 06:25:43;;;;;;;0.10;0.10;;;;;;;;;;5096660;28;20027;-59
2023/10/12 06:28:19;;;;;;;0.43;0.20;;;;;;;;;;5101232;28;20491;-60
2023/10/12 06:30:46;;;;;;;3.33;0.40;;;;;;;;;;5088998;28;20103;-61
2023/10/12 06:33:15;;;;;;;0.53;0.30;;;;;;;;;;5107206;28;20019;-61
2023/10/12 06:36:01;;;;;;;1.57;0.30;;;;;;;;;;5108693;28;20044;-61
2023/10/12 06:46:48;;;;;;;0.60;0.20;;;;;;;;;;5093751;28;20031;-61
2023/10/12 06:49:21;;;;;;;0.37;0.20;;;;;;;;;;5090729;28;20117;-61
2023/10/12 06:51:53;;;;;;;0.20;0.10;;;;;;;;;;5088330;28;20105;-62
2023/10/12 06:54:39;;;;;;;0.10;0.10;;;;;;;;;;5088168;28;20063;-61
2023/10/12 06:57:31;;;;;;;0.53;0.27;;;;;;;;;;5088387;28;20032;-61
2023/10/12 07:02:27;;;;;;;0.13;0.10;;;;;;;;;;5093532;28;20036;-60
2023/10/12 07:05:02;;;;;;;0.70;0.23;;;;;;;;;;5092530;28;20028;-61
2023/10/12 07:07:51;;;;;;;;;;;;;;;;;;5093572;28;20106;-61
2023/10/12 07:10:28;;;;;;;0.00;0.00;;;;;;;;;;5093197;28;20335;-61
2023/10/12 07:12:59;;;;;;;0.00;0.00;;;;;;;;;;5088041;28;20406;-59
2023/10/12 07:15:32;;;;;;;0.93;0.30;;;;;;;;;;5087708;28;20048;-60
2023/10/12 07:18:06;;;;;;;0.00;0.00;;;;;;;;;;5087637;28;20471;-59
2023/10/12 07:23:33;;;;;;;3.73;0.47;;;;;;;;;;5092594;28;20034;-59
2023/10/12 07:25:58;;;;;;;0.00;0.00;;;;;;;;;;5091617;28;20114;-59
2023/10/12 07:28:43;;;;;;;0.03;0.03;;;;;;;;;;5092469;28;20041;-59
2023/10/12 07:36:37;;;;;;;0.77;0.23;;;;;;;;;;5087273;28;20048;-59
2023/10/12 07:39:19;;;;;;;0.17;0.10;;;;;;;;;;5087424;28;20386;-58
2023/10/12 07:42:25;;;;;;;0.10;0.10;;;;;;;;;;5087618;28;20022;-59
2023/10/12 07:44:54;;;;;;;0.73;0.37;;;;;;;;;;5098990;28;20036;-59
2023/10/12 07:47:31;;;;;;;0.30;0.10;;;;;;;;;;5113126;28;20024;-59
2023/10/12 07:50:06;;;;;;;0.00;0.00;;;;;;;;;;5112566;28;20024;-59
2023/10/12 07:52:48;;;;;;;0.00;0.00;;;;;;;;;;5112475;28;20020;-59
2023/10/12 07:55:17;;;;;;;0.13;0.10;;;;;;;;;;5111886;28;20428;-59
2023/10/12 07:57:44;;;;;;;0.30;0.13;;;;;;;;;;5107599;28;20024;-60
2023/10/12 08:24:45;;;;;;;0.50;0.10;;;;;;;;;;5078832;28;20067;-59
2023/10/12 08:31:49;;;;;;;0.10;0.00;;;;;;;;;;5092114;28;20051;-59
2023/10/12 08:39:50;;;;;;;0.10;0.10;;;;;;;;;;5091848;28;20509;-59
2023/10/12 08:45:07;;;;;;;0.23;0.13;;;;;;;;;;5086216;28;20034;-59
2023/10/12 08:52:31;;;;;;;0.50;0.20;;;;;;;;;;5090118;28;20047;-59
2023/10/12 08:55:11;;;;;;;0.03;0.00;;;;;;;;;;5091872;28;20092;-59
2023/10/12 08:57:55;;;;;;;2.67;0.33;;;;;;;;;;5091915;28;20043;-59
2023/10/12 09:03:07;;;;;;;1.40;0.17;;;;;;;;;;5091829;28;20398;-59
2023/10/12 09:05:35;;;;;;;0.00;0.00;;;;;;;;;;5086121;28;20042;-59
2023/10/12 09:13:33;;;;;;;0.00;0.00;;;;;;;;;;5086286;28;20105;-59
2023/10/12 09:16:00;;;;;;;0.20;0.03;;;;;;;;;;5091119;28;20075;-59
2023/10/12 09:18:29;;;;;;;7.13;0.23;;;;;;;;;;5091406;28;20081;-59
2023/10/12 09:23:33;;;;;;;0.10;0.10;;;;;;;;;;5091553;28;20032;-58
2023/10/12 09:31:48;;;;;;;4.27;0.20;;;;;;;;;;5089747;28;20478;-59
2023/10/12 09:36:43;;;;;;;0.27;0.07;;;;;;;;;;5091555;28;20028;-58
2023/10/12 09:39:15;;;;;;;0.13;0.00;;;;;;;;;;5094671;28;20027;-58
2023/10/12 09:41:55;;;;;;;0.00;0.00;;;;;;;;;;5095104;28;20763;-59
2023/10/12 09:44:37;;;;;;;0.10;0.00;;;;;;;;;;5094749;28;20513;-58
2023/10/12 09:47:09;;;;;;;0.00;0.00;;;;;;;;;;5094634;28;20399;-59
2023/10/12 09:49:37;;;;;;;9.37;0.43;;;;;;;;;;5090926;28;20052;-58
2023/10/12 09:52:13;;;;;;;4.03;0.30;;;;;;;;;;5089191;28;20043;-58
2023/10/12 09:54:45;;;;;;;0.40;0.20;;;;;;;;;;5089096;28;20032;-58
2023/10/12 09:57:28;;;;;;;0.20;0.20;;;;;;;;;;5089088;28;20026;-59
2023/10/12 09:59:59;;;;;;;0.00;0.00;;;;;;;;;;5092885;28;20028;-58
2023/10/12 10:02:34;;;;;;;0.33;0.23;;;;;;;;;;5094432;28;20035;-58
2023/10/12 10:07:55;;;;;;;0.10;0.10;;;;;;;;;;5094023;28;20293;-59
2023/10/12 10:10:33;;;;;;;5.00;0.27;;;;;;;;;;5094268;28;20726;-58
2023/10/12 10:13:00;;;;;;;0.10;0.10;;;;;;;;;;5088532;28;20028;-59
2023/10/12 10:15:38;;;;;;;0.43;0.10;;;;;;;;;;5089523;28;20020;-58
2023/10/12 10:18:05;;;;;;;0.00;0.00;;;;;;;;;;5089905;28;20036;-59
2023/10/12 10:20:46;;;;;;;0.00;0.00;;;;;;;;;;5088749;28;20059;-59
2023/10/12 10:23:19;;;;;;;1.50;0.17;;;;;;;;;;5094136;28;20518;-58
2023/10/12 10:26:47;;;;;;;0.30;0.07;;;;;;;;;;5093970;28;20017;-58
2023/10/12 10:28:54;;;;;;;0.30;0.27;;;;;;;;;;5082729;28;20060;-58
2023/10/12 10:31:34;;;;;;;0.00;0.00;;;;;;;;;;5093966;28;20029;-58
2023/10/12 10:34:03;;;;;;;0.37;0.13;;;;;;;;;;5091286;28;20027;-59
2023/10/12 10:36:34;;;;;;;0.00;0.00;;;;;;;;;;5088216;28;20024;-58
2023/10/12 10:39:09;;;;;;;1.90;0.37;;;;;;;;;;5099361;28;20091;-59
2023/10/12 10:44:15;;;;;;;0.10;0.10;;;;;;;;;;5111057;28;20080;-59
2023/10/12 10:46:45;;;;;;;0.50;0.20;;;;;;;;;;5114308;28;20075;-58
2023/10/12 10:49:16;;;;;;;0.77;0.20;;;;;;;;;;5114085;28;20031;-58
2023/10/12 10:54:39;;;;;;;0.10;0.10;;;;;;;;;;5103139;28;20386;-58
2023/10/12 10:57:16;;;;;;;0.00;0.00;;;;;;;;;;5094621;28;20028;-58
2023/10/12 10:59:46;;;;;;;0.10;0.07;;;;;;;;;;5088255;28;20048;-58
2023/10/12 11:02:14;;;;;;;0.10;0.10;;;;;;;;;;5088064;28;20032;-58
2023/10/12 11:07:19;;;;;;;3.40;0.43;;;;;;;;;;5091417;28;20363;-58
2023/10/12 11:12:23;;;;;;;0.10;0.10;;;;;;;;;;5093063;28;20028;-58
2023/10/12 11:18:19;;;;;;;0.00;0.00;;;;;;;;;;5093152;28;20536;-58
2023/10/12 11:20:27;;;;;;;0.37;0.23;;;;;;;;;;5084286;28;20436;-58
2023/10/12 11:22:54;;;;;;;2.83;0.40;;;;;;;;;;5108085;28;20062;-58
2023/10/12 11:25:21;;;;;;;2.10;0.43;;;;;;;;;;5107920;28;20020;-58
2023/10/12 11:27:51;;;;;;;0.10;0.00;;;;;;;;;;5107765;28;20094;-58
2023/10/12 11:30:29;;;;;;;0.20;0.10;;;;;;;;;;5112660;28;20079;-58
2023/10/12 11:32:58;;;;;;;0.20;0.10;;;;;;;;;;5095143;28;20031;-59
2023/10/12 11:35:40;;;;;;;0.30;0.23;;;;;;;;;;5093021;28;20470;-58
2023/10/12 11:38:20;;;;;;;12.33;0.30;;;;;;;;;;5092678;28;20483;-58
2023/10/12 11:40:53;;;;;;;0.00;0.00;;;;;;;;;;5091563;28;20028;-58
2023/10/12 11:43:21;;;;;;;0.13;0.13;;;;;;;;;;5090579;28;20019;-58
2023/10/12 11:46:04;;;;;;;0.00;0.00;;;;;;;;;;5107803;28;20015;-58
2023/10/12 11:48:31;;;;;;;0.60;0.40;;;;;;;;;;5107632;28;20347;-58
2023/10/12 11:50:58;;;;;;;2.63;0.30;;;;;;;;;;5107854;28;20020;-58
2023/10/12 11:53:28;;;;;;;0.80;0.50;;;;;;;;;;5112845;28;20539;-58
2023/10/12 11:56:13;;;;;;;0.03;0.03;;;;;;;;;;5102493;28;20066;-58
2023/10/12 11:58:55;;;;;;;0.77;0.43;;;;;;;;;;5092454;28;20429;-57
2023/10/12 12:01:29;;;;;;;5.00;0.67;;;;;;;;;;5092435;28;20039;-58
2023/10/12 12:03:56;;;;;;;0.10;0.10;;;;;;;;;;5089860;28;20024;-58
2023/10/12 12:06:26;;;;;;;1.17;0.80;;;;;;;;;;5086950;28;20028;-57
2023/10/12 12:08:59;;;;;;;1.00;0.63;;;;;;;;;;5103227;28;20048;-58
2023/10/12 12:11:31;;;;;;;1.67;0.93;;;;;;;;;;5107321;28;20020;-58
2023/10/12 12:13:58;;;;;;;0.37;0.30;;;;;;;;;;5109439;28;20027;-58
2023/10/12 12:16:24;;;;;;;2.03;0.90;;;;;;;;;;5095736;28;20027;-58
2023/10/12 12:18:52;;;;;;;0.60;0.37;;;;;;;;;;5092290;28;20480;-58
2023/10/12 12:21:29;;;;;;;1.03;0.57;;;;;;;;;;5092245;28;20063;-58
2023/10/12 12:26:49;;;;;;;1.53;0.70;;;;;;;;;;5106926;28;20046;-58
2023/10/12 12:29:16;;;;;;;0.67;0.50;;;;;;;;;;5106963;28;20373;-59
2023/10/12 12:31:43;;;;;;;0.53;0.40;;;;;;;;;;5107114;28;20489;-58
2023/10/12 12:34:18;;;;;;;3.23;0.73;;;;;;;;;;5106989;28;20024;-58
2023/10/12 12:36:47;;;;;;;0.55;0.40;;;;;;;;;;5106889;28;20040;-58
2023/10/12 12:39:21;;;;;;;0.73;0.53;;;;;;;;;;5091717;28;20036;-58
2023/10/12 12:41:48;;;;;;;0.77;0.37;;;;;;;;;;5091549;28;20028;-58
2023/10/12 12:44:16;;;;;;;1.43;0.80;;;;;;;;;;5092175;28;20555;-58
2023/10/12 12:46:43;;;;;;;1.27;0.93;;;;;;;;;;5091921;28;20035;-58
2023/10/12 12:49:11;;;;;;;3.27;0.57;;;;;;;;;;5094068;28;20145;-58
2023/10/12 12:51:38;;;;;;;19.53;1.60;;;;;;;;;;5106532;28;20032;-58
2023/10/12 12:54:05;;;;;;;1.90;0.80;;;;;;;;;;5106602;28;20027;-58
2023/10/12 12:56:32;;;;;;;4.80;1.20;;;;;;;;;;5106853;28;20208;-58
2023/10/12 12:59:00;;;;;;;3.87;0.80;;;;;;;;;;5109395;28;20061;-58
2023/10/12 13:01:30;;;;;;;2.07;1.33;;;;;;;;;;5102869;28;20020;-58
2023/10/12 13:03:57;;;;;;;22.37;1.07;;;;;;;;;;5095578;28;20028;-58
2023/10/12 13:06:24;;;;;;;0.97;0.77;;;;;;;;;;5095604;28;20024;-58
2023/10/12 13:08:51;;;;;;;1.47;1.00;;;;;;;;;;5095305;28;20363;-58
2023/10/12 13:11:18;;;;;;;6.60;0.93;;;;;;;;;;5092897;28;20029;-59
2023/10/12 13:13:45;;;;;;;5.50;1.53;;;;;;;;;;5099138;28;20540;-58
2023/10/12 13:16:14;;;;;;;1.43;1.10;;;;;;;;;;5110212;28;20466;-58
2023/10/12 13:18:46;;;;;;;1.07;0.73;;;;;;;;;;5110581;28;20034;-58
2023/10/12 13:21:16;;;;;;;0.23;0.20;;;;;;;;;;5112798;28;20047;-58
2023/10/12 13:23:44;;;;;;;1.43;0.63;;;;;;;;;;5115405;28;20020;-58
2023/10/12 13:26:12;;;;;;;1.80;0.30;;;;;;;;;;5101814;28;20424;-58
2023/10/12 13:28:41;;;;;;;0.70;0.40;;;;;;;;;;5095289;28;20103;-58
2023/10/12 13:31:10;;;;;;;0.87;0.10;;;;;;;;;;5095434;28;20022;-58
2023/10/12 13:33:37;;;;;;;1.40;0.30;;;;;;;;;;5104498;28;20439;-58
2023/10/12 13:36:05;;;;;;;0.40;0.30;;;;;;;;;;5110115;28;20111;-58
2023/10/12 13:38:36;;;;;;;2.23;0.47;;;;;;;;;;5109867;28;20034;-58
2023/10/12 13:41:03;;;;;;;1.33;0.67;;;;;;;;;;5109883;28;20134;-58
2023/10/12 13:43:34;;;;;;;1.07;0.60;;;;;;;;;;5107401;28;20069;-58
2023/10/12 13:46:07;;;;;;;0.70;0.60;;;;;;;;;;5115444;28;20363;-58
2023/10/12 13:48:37;;;;;;;1.83;1.00;;;;;;;;;;5102872;28;20035;-58
2023/10/12 13:51:08;;;;;;;1.00;0.70;;;;;;;;;;5094613;28;20085;-58
2023/10/12 13:53:38;;;;;;;1.43;0.80;;;;;;;;;;5094362;28;20040;-58
2023/10/12 13:56:09;;;;;;;2.43;0.83;;;;;;;;;;5091985;28;20031;-59
2023/10/12 13:58:36;;;;;;;1.77;0.93;;;;;;;;;;5100339;28;20102;-58
2023/10/12 14:01:03;;;;;;;1.93;1.07;;;;;;;;;;5107606;28;20092;-58
2023/10/12 14:03:38;;;;;;;2.53;0.93;;;;;;;;;;5109477;28;20051;-58
2023/10/12 14:06:07;;;;;;;0.65;0.60;;;;;;;;;;5109735;28;20028;-58
2023/10/12 14:08:41;;;;;;;1.87;1.10;;;;;;;;;;5100119;28;20031;-58
2023/10/12 14:11:10;;;;;;;2.17;1.10;;;;;;;;;;5094254;28;20020;-59
2023/10/12 14:13:38;;;;;;;3.57;1.27;;;;;;;;;;5094021;28;20056;-58
2023/10/12 14:16:09;;;;;;;1.63;1.10;;;;;;;;;;5094227;28;20028;-59
2023/10/12 14:18:36;;;;;;;3.87;1.73;;;;;;;;;;5104602;28;20040;-58
2023/10/12 14:21:09;;;;;;;2.30;1.30;;;;;;;;;;5108938;28;20517;-59
2023/10/12 14:23:40;;;;;;;9.63;2.83;;;;;;;;;;5109204;28;20054;-59
2023/10/12 14:26:07;;;;;;;2.00;1.57;;;;;;;;;;5108901;28;20028;-59
2023/10/12 14:28:36;;;;;;;3.60;1.97;;;;;;;;;;5092158;28;20107;-59
2023/10/12 14:31:05;;;;;;;3.50;1.77;;;;;;;;;;5094190;28;20028;-59
2023/10/12 14:33:33;;;;;;;5.03;2.53;;;;;;;;;;5093635;28;20451;-59
2023/10/12 14:35:59;;;;;;;2.23;1.40;;;;;;;;;;5094008;28;20024;-59
2023/10/12 14:38:27;;;;;;;5.20;1.70;;;;;;;;;;5110691;28;20019;-59
2023/10/12 14:40:56;;;;;;;5.50;1.83;;;;;;;;;;5111069;28;20082;-59
2023/10/12 14:43:23;;;;;;;2.17;1.53;;;;;;;;;;5108547;28;20035;-59
2023/10/12 14:45:57;;;;;;;3.07;1.43;;;;;;;;;;5108669;28;20028;-59
2023/10/12 14:48:24;;;;;;;2.47;1.10;;;;;;;;;;5108286;28;20031;-60
2023/10/12 14:51:00;;;;;;;1.80;1.07;;;;;;;;;;5092534;28;20028;-59
2023/10/12 15:06:14;;;;;;;1.50;0.70;;;;;;;;;;5072839;27;2529884;-58
2023/10/12 15:08:42;;;;;;;1.15;0.73;;;;;;;;;;5095329;27;20043;-58
2023/10/12 15:11:09;;;;;;;0.80;0.60;;;;;;;;;;5084257;28;20077;-58
2023/10/12 15:13:45;;;;;;;0.93;0.60;;;;;;;;;;5098621;28;20027;-58
2023/10/12 15:16:12;;;;;;;1.10;0.68;;;;;;;;;;5104277;28;20028;-60
2023/10/12 15:18:41;;;;;;;1.48;0.75;;;;;;;;;;5109314;28;20031;-58
2023/10/12 15:21:11;;;;;;;0.70;0.52;;;;;;;;;;5108486;28;20020;-59
2023/10/12 15:23:38;;;;;;;2.15;1.00;;;;;;;;;;5109155;28;20081;-59
2023/10/12 15:26:06;;;;;;;0.77;0.75;;;;;;;;;;5109237;28;20101;-58
2023/10/12 15:28:36;;;;;;;1.17;0.93;;;;;;;;;;5109227;28;20024;-59
2023/10/12 15:31:11;;;;;;;0.68;0.25;;;;;;;;;;5104329;28;20642;-59
2023/10/12 15:33:38;;;;;;;1.05;0.60;;;;;;;;;;5104054;28;20038;-59
2023/10/12 15:36:07;;;;;;;0.40;0.40;;;;;;;;;;5104095;28;20149;-59
2023/10/12 15:38:33;;;;;;;0.75;0.47;;;;;;;;;;5103946;28;20036;-59
2023/10/12 15:41:00;;;;;;;0.65;0.52;;;;;;;;;;5108567;28;20024;-59
2023/10/12 15:43:27;;;;;;;0.95;0.73;;;;;;;;;;5109207;28;20024;-59
2023/10/12 15:45:54;;;;;;;0.93;0.50;;;;;;;;;;5108899;28;20035;-59
2023/10/12 15:48:26;;;;;;;0.70;0.50;;;;;;;;;;5108348;28;20477;-59
2023/10/12 15:50:54;;;;;;;0.35;0.20;;;;;;;;;;5107888;28;20028;-59
2023/10/12 15:53:22;;;;;;;0.95;0.43;;;;;;;;;;5103338;28;20026;-59
2023/10/12 15:55:49;;;;;;;0.55;0.40;;;;;;;;;;5103633;28;20035;-59
2023/10/12 15:58:16;;;;;;;1.23;0.52;;;;;;;;;;5103009;28;20023;-59
2023/10/12 16:00:42;;;;;;;1.17;0.52;;;;;;;;;;5103245;28;20085;-59
2023/10/12 16:03:09;;;;;;;1.33;0.50;;;;;;;;;;5107676;28;20023;-59
2023/10/12 16:05:36;;;;;;;0.43;0.40;;;;;;;;;;5103708;28;20059;-59
2023/10/12 16:08:10;;;;;;;0.52;0.32;;;;;;;;;;5094891;28;20039;-59
2023/10/12 16:10:37;;;;;;;;;;;;;;;;;;5095228;28;20039;-59
2023/10/12 16:13:08;;;;;;;0.93;0.50;;;;;;;;;;5094657;28;19911;-59
2023/10/12 16:15:39;;;;;;;1.65;0.70;;;;;;;;;;5090219;28;20043;-59
2023/10/12 16:18:08;;;;;;;2.70;0.93;;;;;;;;;;5089363;28;20024;-59
2023/10/12 16:20:35;;;;;;;1.33;0.73;;;;;;;;;;5089401;28;20031;-59
2023/10/12 16:23:01;;;;;;;0.65;0.25;;;;;;;;;;5089637;28;20148;-59
2023/10/12 16:25:28;;;;;;;1.75;0.55;;;;;;;;;;5093243;28;20031;-59
2023/10/12 16:27:58;;;;;;;0.20;0.20;;;;;;;;;;5094244;28;20020;-59
2023/10/12 16:30:29;;;;;;;0.80;0.43;;;;;;;;;;5094684;28;20017;-59
2023/10/12 16:32:56;;;;;;;4.47;1.42;;;;;;;;;;5094678;28;20107;-60
2023/10/12 16:35:24;;;;;;;10.85;1.70;;;;;;;;;;5078055;28;20032;-59
2023/10/12 16:37:51;;;;;;;0.38;0.30;;;;;;;;;;5076452;28;20046;-59
2023/10/12 16:40:18;;;;;;;1.13;0.85;;;;;;;;;;5089209;28;20371;-60
2023/10/12 16:42:47;;;;;;;0.40;0.40;;;;;;;;;;5089282;28;20020;-59
2023/10/12 16:45:15;;;;;;;1.77;1.10;;;;;;;;;;5085522;28;20473;-59
2023/10/12 16:47:45;;;;;;;1.80;0.98;;;;;;;;;;5092514;28;20059;-59
2023/10/12 16:50:12;;;;;;;0.73;0.52;;;;;;;;;;5094387;28;20162;-59
2023/10/12 16:52:39;;;;;;;0.75;0.50;;;;;;;;;;5094391;28;20073;-59
2023/10/12 16:55:06;;;;;;;6.85;0.93;;;;;;;;;;5093894;28;20028;-59
2023/10/12 16:57:33;;;;;;;0.98;0.45;;;;;;;;;;5093681;28;20381;-59
2023/10/12 17:00:00;;;;;;;1.35;0.43;;;;;;;;;;5089367;28;20024;-60
2023/10/12 17:02:29;;;;;;;3.03;0.90;;;;;;;;;;5087741;28;20096;-60
2023/10/12 17:04:59;;;;;;;1.65;0.80;;;;;;;;;;5087481;28;20110;-60
2023/10/12 17:07:26;;;;;;;0.65;0.38;;;;;;;;;;5082379;28;20371;-60
2023/10/12 17:09:55;;;;;;;0.32;0.17;;;;;;;;;;5091515;28;20103;-60
2023/10/12 17:12:23;;;;;;;0.40;0.22;;;;;;;;;;5093701;28;20016;-60
2023/10/12 17:14:51;;;;;;;0.30;0.10;;;;;;;;;;5093611;28;20115;-60
2023/10/12 17:17:20;;;;;;;0.30;0.10;;;;;;;;;;5092173;28;20551;-60
2023/10/12 17:19:50;;;;;;;0.15;0.13;;;;;;;;;;5093448;28;20024;-60
2023/10/12 17:22:17;;;;;;;0.30;0.30;;;;;;;;;;5090387;28;20035;-61
2023/10/12 17:24:44;;;;;;;0.55;0.10;;;;;;;;;;5087880;28;20028;-60
2023/10/12 17:27:12;;;;;;;0.55;0.22;;;;;;;;;;5087816;28;20024;-60
2023/10/12 17:29:39;;;;;;;3.45;0.60;;;;;;;;;;5067959;28;20131;-60
2023/10/12 17:32:07;;;;;;;0.50;0.30;;;;;;;;;;5070580;28;20025;-60
2023/10/12 17:34:34;;;;;;;0.25;0.15;;;;;;;;;;5072712;28;20033;-59
2023/10/12 17:37:02;;;;;;;0.60;0.32;;;;;;;;;;5073150;28;20037;-59
2023/10/12 17:39:29;;;;;;;0.30;0.22;;;;;;;;;;5091918;28;20046;-60
2023/10/12 17:41:58;;;;;;;0.20;0.10;;;;;;;;;;5093308;28;20073;-60
2023/10/12 17:44:25;;;;;;;0.10;0.10;;;;;;;;;;5090456;28;20378;-60
2023/10/12 17:46:52;;;;;;;0.30;0.13;;;;;;;;;;5088073;28;20024;-60
2023/10/12 17:49:21;;;;;;;0.70;0.40;;;;;;;;;;5087477;28;20047;-60
2023/10/12 17:51:52;;;;;;;0.50;0.22;;;;;;;;;;5087649;28;20036;-60
2023/10/12 17:54:20;;;;;;;0.30;0.20;;;;;;;;;;5089729;28;20127;-60
2023/10/12 17:56:47;;;;;;;0.30;0.17;;;;;;;;;;5092879;28;20105;-60